createdAt,value
2023-04-11T00:02:52.375Z,35.17
2023-04-11T00:05:55.644Z,35.15
2023-04-11T00:08:58.785Z,35.24
2023-04-11T00:12:02.413Z,35.33
2023-04-11T00:15:06.406Z,35.29
2023-04-11T00:18:12.715Z,35.55
2023-04-11T00:21:15.715Z,35.43
2023-04-11T00:24:18.779Z,35.21
2023-04-11T00:27:22.087Z,35.48
2023-04-11T00:30:25.376Z,35.17
2023-04-11T00:33:29.764Z,35.15
2023-04-11T00:36:32.886Z,35.12
2023-04-11T00:39:35.979Z,35.26
2023-04-11T00:42:39.248Z,35.15
2023-04-11T00:45:42.371Z,35.02
2023-04-11T00:48:47.138Z,35.07
2023-04-11T00:51:50.248Z,35.00
2023-04-11T00:54:53.334Z,35.09
2023-04-11T00:57:56.566Z,35.16
2023-04-11T01:00:59.662Z,35.16
2023-04-11T01:04:04.668Z,34.83
2023-04-11T01:07:09.376Z,35.12
2023-04-11T01:10:14.094Z,35.03
2023-04-11T01:13:17.371Z,34.74
2023-04-11T01:16:21.712Z,34.98
2023-04-11T01:19:27.739Z,34.81
2023-04-11T01:22:31.927Z,34.95
2023-04-11T01:25:36.352Z,34.67
2023-04-11T01:28:39.420Z,34.86
2023-04-11T01:31:42.825Z,34.65
2023-04-11T01:34:48.246Z,34.72
2023-04-11T01:37:51.482Z,34.56
2023-04-11T01:40:57.027Z,34.93
2023-04-11T01:44:00.396Z,34.84
2023-04-11T01:47:03.709Z,34.69
2023-04-11T01:50:08.436Z,34.77
2023-04-11T01:53:11.538Z,34.83
2023-04-11T01:56:16.385Z,34.75
2023-04-11T01:59:19.641Z,34.52
2023-04-11T02:02:22.915Z,34.85
2023-04-11T02:05:26.401Z,34.73
2023-04-11T02:08:29.574Z,34.40
2023-04-11T02:11:34.041Z,34.74
2023-04-11T02:14:44.640Z,34.69
2023-04-11T02:17:48.271Z,34.63
2023-04-11T02:20:51.452Z,34.68
2023-04-11T02:23:54.550Z,34.64
2023-04-11T02:26:59.214Z,34.74
2023-04-11T02:30:05.854Z,34.42
2023-04-11T02:33:08.984Z,34.51
2023-04-11T02:36:12.714Z,34.60
2023-04-11T02:39:16.079Z,34.84
2023-04-11T02:42:20.598Z,34.50
2023-04-11T02:45:24.037Z,34.43
2023-04-11T02:48:27.110Z,34.65
2023-04-11T02:51:31.032Z,34.48
2023-04-11T02:54:34.136Z,34.63
2023-04-11T02:57:38.634Z,34.62
2023-04-11T03:00:41.852Z,34.40
2023-04-11T03:03:45.383Z,34.48
2023-04-11T03:06:48.542Z,34.72
2023-04-11T03:09:51.687Z,34.56
2023-04-11T03:12:56.208Z,34.18
2023-04-11T03:15:59.497Z,34.42
2023-04-11T03:19:02.742Z,34.93
2023-04-11T03:22:06.249Z,35.26
2023-04-11T03:25:10.764Z,35.73
2023-04-11T03:28:15.311Z,35.64
2023-04-11T03:31:19.168Z,35.48
2023-04-11T03:34:22.278Z,35.53
2023-04-11T03:37:25.409Z,35.80
2023-04-11T03:40:28.852Z,35.74
2023-04-11T03:43:33.344Z,35.89
2023-04-11T03:46:36.495Z,35.74
2023-04-11T03:49:39.603Z,35.63
2023-04-11T03:52:42.694Z,35.22
2023-04-11T03:55:45.919Z,35.37
2023-04-11T03:58:50.516Z,35.38
2023-04-11T04:01:53.539Z,35.04
2023-04-11T04:04:58.773Z,35.52
2023-04-11T04:08:01.920Z,36.70
2023-04-11T04:11:05.184Z,36.99
2023-04-11T04:14:09.642Z,35.99
2023-04-11T04:17:13.132Z,36.78
2023-04-11T04:20:16.206Z,36.26
2023-04-11T04:23:22.088Z,35.25
2023-04-11T04:26:30.084Z,35.44
2023-04-11T04:29:38.675Z,35.50
2023-04-11T04:32:43.807Z,35.22
2023-04-11T04:35:47.047Z,35.26
2023-04-11T04:38:50.574Z,34.99
2023-04-11T04:41:58.388Z,35.09
2023-04-11T04:45:03.319Z,34.99
2023-04-11T04:48:06.871Z,35.13
2023-04-11T04:51:10.168Z,34.85
2023-04-11T04:54:13.203Z,35.00
2023-04-11T04:57:16.288Z,34.93
2023-04-11T05:00:22.994Z,35.16
2023-04-11T05:03:26.374Z,35.01
2023-04-11T05:06:31.594Z,35.02
2023-04-11T05:09:34.617Z,34.88
2023-04-11T05:12:37.687Z,34.82
2023-04-11T05:15:48.467Z,34.85
2023-04-11T05:18:51.540Z,34.65
2023-04-11T05:21:55.650Z,34.73
2023-04-11T05:24:58.602Z,34.70
2023-04-11T05:28:01.719Z,34.61
2023-04-11T05:31:07.107Z,34.97
2023-04-11T05:34:10.208Z,34.79
2023-04-11T05:37:13.227Z,34.76
2023-04-11T05:40:16.308Z,34.76
2023-04-11T05:43:19.339Z,34.76
2023-04-11T05:46:23.761Z,34.68
2023-04-11T05:49:26.914Z,34.51
2023-04-11T05:52:29.973Z,34.52
2023-04-11T05:55:32.986Z,34.49
2023-04-11T05:58:37.795Z,34.70
2023-04-11T06:01:42.376Z,34.49
2023-04-11T06:04:46.065Z,34.66
2023-04-11T06:07:49.246Z,34.34
2023-04-11T06:10:52.301Z,34.53
2023-04-11T06:13:55.557Z,34.76
2023-04-11T06:17:00.691Z,34.55
2023-04-11T06:20:06.197Z,34.47
2023-04-11T06:23:09.439Z,34.59
2023-04-11T06:26:12.421Z,34.83
2023-04-11T06:29:15.545Z,34.52
2023-04-11T06:32:20.014Z,34.90
2023-04-11T06:35:25.016Z,34.96
2023-04-11T06:38:28.159Z,34.87
2023-04-11T06:41:31.332Z,34.88
2023-04-11T06:44:34.603Z,35.11
2023-04-11T06:47:39.049Z,35.03
2023-04-11T06:50:42.142Z,35.51
2023-04-11T06:53:45.268Z,35.46
2023-04-11T06:56:50.646Z,35.38
2023-04-11T06:59:53.743Z,35.16
2023-04-11T07:02:59.609Z,35.50
2023-04-11T07:06:03.234Z,35.16
2023-04-11T07:09:06.749Z,35.20
2023-04-11T07:12:09.807Z,35.08
2023-04-11T07:15:12.905Z,35.04
2023-04-11T07:18:17.424Z,35.13
2023-04-11T07:21:20.706Z,34.84
2023-04-11T07:24:23.796Z,34.98
2023-04-11T07:27:26.889Z,35.07
2023-04-11T07:30:30.078Z,34.71
2023-04-11T07:33:34.536Z,34.91
2023-04-11T07:36:37.683Z,34.98
2023-04-11T07:39:41.198Z,34.99
2023-04-11T07:42:46.337Z,34.79
2023-04-11T07:45:49.353Z,34.87
2023-04-11T07:48:53.851Z,34.69
2023-04-11T07:51:56.857Z,34.81
2023-04-11T07:55:01.862Z,34.71
2023-04-11T07:58:04.956Z,34.91
2023-04-11T08:01:09.553Z,34.67
2023-04-11T08:04:14.354Z,34.93
2023-04-11T08:07:17.537Z,34.74
2023-04-11T08:10:20.678Z,34.79
2023-04-11T08:13:23.737Z,34.71
2023-04-11T08:16:26.819Z,34.37
2023-04-11T08:19:32.535Z,34.67
2023-04-11T08:22:36.000Z,34.69
2023-04-11T08:25:39.304Z,34.43
2023-04-11T08:28:43.477Z,34.65
2023-04-11T08:31:47.045Z,34.32
2023-04-11T08:34:51.501Z,34.55
2023-04-11T08:37:54.601Z,34.23
2023-04-11T08:40:57.854Z,34.47
2023-04-11T08:44:01.808Z,34.37
2023-04-11T08:47:07.038Z,34.38
2023-04-11T08:50:12.064Z,34.45
2023-04-11T08:53:16.148Z,34.68
2023-04-11T08:56:19.150Z,34.70
2023-04-11T08:59:22.197Z,34.33
2023-04-11T09:02:25.650Z,34.30
2023-04-11T09:05:31.816Z,34.60
2023-04-11T09:08:39.814Z,34.04
2023-04-11T09:11:56.248Z,34.35
2023-04-11T09:14:59.266Z,34.25
2023-04-11T09:18:02.461Z,34.44
2023-04-11T09:21:08.617Z,34.13
2023-04-11T09:24:18.314Z,34.28
2023-04-11T09:27:24.595Z,34.21
2023-04-11T09:30:27.997Z,34.48
2023-04-11T09:33:31.790Z,34.32
2023-04-11T09:36:36.587Z,34.00
2023-04-11T09:39:39.636Z,34.21
2023-04-11T09:42:43.157Z,34.39
2023-04-11T09:48:52.175Z,34.21
2023-04-11T09:51:58.866Z,33.99
2023-04-11T09:55:02.558Z,34.38
2023-04-11T09:58:07.246Z,34.12
2023-04-11T10:01:11.688Z,34.18
2023-04-11T10:07:19.565Z,34.06
2023-04-11T10:10:25.084Z,34.08
2023-04-11T10:13:41.711Z,34.09
2023-04-11T10:17:12.768Z,34.37
2023-04-11T10:20:44.986Z,34.02
2023-04-11T10:24:14.061Z,34.28
2023-04-11T10:27:48.776Z,34.25
2023-04-11T10:31:03.143Z,34.24
2023-04-11T10:34:15.939Z,34.32
2023-04-11T10:37:20.260Z,33.94
2023-04-11T10:40:25.899Z,34.08
2023-04-11T10:43:29.079Z,33.86
2023-04-11T10:46:32.212Z,34.13
2023-04-11T10:49:38.148Z,34.04
2023-04-11T10:52:41.840Z,34.31
2023-04-11T10:55:48.858Z,34.10
2023-04-11T10:58:53.532Z,34.22
2023-04-11T11:01:57.073Z,34.28
2023-04-11T11:05:03.509Z,34.05
2023-04-11T11:08:06.970Z,33.93
2023-04-11T11:11:12.595Z,34.22
2023-04-11T11:14:29.727Z,33.96
2023-04-11T11:17:32.928Z,33.98
2023-04-11T11:20:36.849Z,34.13
2023-04-11T11:23:40.034Z,34.03
2023-04-11T11:26:46.720Z,33.86
2023-04-11T11:29:49.959Z,33.86
2023-04-11T11:32:52.991Z,34.25
2023-04-11T11:35:58.228Z,34.24
2023-04-11T11:39:03.606Z,33.95
2023-04-11T11:42:08.342Z,34.38
2023-04-11T11:45:17.986Z,34.38
2023-04-11T11:48:22.443Z,34.21
2023-04-11T11:51:25.928Z,33.89
2023-04-11T11:54:29.095Z,33.92
2023-04-11T11:57:33.672Z,33.89
2023-04-11T12:00:38.906Z,33.98
2023-04-11T12:03:42.326Z,34.17
2023-04-11T12:06:46.726Z,33.90
2023-04-11T12:09:50.042Z,34.11
2023-04-11T12:12:54.647Z,34.01
2023-04-11T12:15:59.228Z,33.73
2023-04-11T12:19:04.353Z,34.03
2023-04-11T12:22:07.431Z,34.20
2023-04-11T12:25:12.192Z,33.93
2023-04-11T12:28:17.439Z,33.87
2023-04-11T12:31:21.331Z,34.21
2023-04-11T12:34:24.372Z,33.78
2023-04-11T12:37:27.645Z,33.94
2023-04-11T12:40:30.693Z,34.00
2023-04-11T12:43:35.151Z,34.02
2023-04-11T12:46:38.315Z,34.01
2023-04-11T12:49:41.582Z,34.11
2023-04-11T12:52:44.758Z,34.39
2023-04-11T12:55:47.825Z,34.12
2023-04-11T12:58:52.357Z,34.11
2023-04-11T13:01:55.664Z,34.08
2023-04-11T13:05:01.001Z,33.93
2023-04-11T13:08:04.139Z,34.20
2023-04-11T13:11:07.731Z,34.25
2023-04-11T13:14:12.111Z,33.88
2023-04-11T13:17:15.449Z,33.93
2023-04-11T13:20:18.497Z,34.08
2023-04-11T13:23:21.620Z,34.32
2023-04-11T13:26:27.520Z,34.03
2023-04-11T13:29:31.994Z,34.23
2023-04-11T13:32:35.297Z,34.22
2023-04-11T13:35:38.336Z,34.38
2023-04-11T13:38:41.399Z,34.05
2023-04-11T13:41:44.492Z,34.14
2023-04-11T13:44:48.916Z,33.96
2023-04-11T13:47:52.013Z,33.84
2023-04-11T13:50:57.614Z,33.89
2023-04-11T13:54:00.808Z,33.92
2023-04-11T13:57:07.802Z,34.31
2023-04-11T14:00:14.322Z,34.25
2023-04-11T14:03:18.007Z,34.31
2023-04-11T14:06:21.169Z,33.94
2023-04-11T14:09:24.262Z,34.00
2023-04-11T14:12:27.823Z,33.96
2023-04-11T14:15:32.880Z,34.23
2023-04-11T14:18:36.075Z,34.09
2023-04-11T14:21:39.185Z,34.11
2023-04-11T14:24:42.190Z,34.00
2023-04-11T14:27:46.552Z,33.94
2023-04-11T14:30:51.165Z,34.10
2023-04-11T14:33:54.439Z,33.98
2023-04-11T14:36:57.654Z,34.16
2023-04-11T14:40:00.856Z,33.97
2023-04-11T14:43:04.076Z,33.93
2023-04-11T14:46:08.715Z,34.25
2023-04-11T14:49:11.876Z,34.09
2023-04-11T14:52:14.892Z,33.93
2023-04-11T14:55:18.415Z,34.14
2023-04-11T14:58:21.921Z,33.86
2023-04-11T15:01:27.230Z,34.07
2023-04-11T15:04:30.552Z,33.97
2023-04-11T15:07:33.694Z,33.90
2023-04-11T15:10:36.918Z,33.77
2023-04-11T15:13:40.201Z,33.98
2023-04-11T15:16:44.600Z,33.43
2023-04-11T15:19:47.627Z,33.62
2023-04-11T15:22:50.708Z,33.41
2023-04-11T15:25:54.736Z,34.00
2023-04-11T15:28:57.764Z,33.90
2023-04-11T15:32:03.935Z,34.58
2023-04-11T15:35:07.846Z,34.70
2023-04-11T15:38:11.679Z,35.07
2023-04-11T15:41:14.904Z,36.36
2023-04-11T15:44:18.002Z,37.50
2023-04-11T15:47:22.737Z,40.11
2023-04-11T15:50:25.842Z,39.90
2023-04-11T15:53:28.863Z,39.46
2023-04-11T15:56:33.339Z,39.00
2023-04-11T15:59:38.061Z,38.25
2023-04-11T16:02:45.174Z,37.79
2023-04-11T16:05:50.942Z,37.26
2023-04-11T16:08:54.220Z,37.32
2023-04-11T16:11:57.627Z,37.09
2023-04-11T16:15:00.758Z,36.60
2023-04-11T16:18:05.462Z,36.44
2023-04-11T16:21:14.188Z,36.58
2023-04-11T16:24:18.714Z,37.06
2023-04-11T16:27:21.825Z,36.61
2023-04-11T16:30:25.462Z,36.74
2023-04-11T16:33:30.150Z,37.07
2023-04-11T16:36:34.505Z,37.59
2023-04-11T16:39:37.881Z,36.98
2023-04-11T16:42:41.226Z,37.54
2023-04-11T16:45:44.772Z,37.20
2023-04-11T16:48:49.341Z,36.96
2023-04-11T16:51:52.445Z,36.62
2023-04-11T16:54:55.728Z,36.80
2023-04-11T16:57:58.796Z,36.13
2023-04-11T17:01:02.180Z,36.13
2023-04-11T17:04:07.202Z,36.41
2023-04-11T17:07:11.284Z,36.23
2023-04-11T17:10:14.534Z,37.76
2023-04-11T17:13:18.717Z,37.97
2023-04-11T17:16:21.878Z,37.08
2023-04-11T17:19:26.501Z,36.83
2023-04-11T17:22:29.586Z,37.22
2023-04-11T17:25:32.583Z,36.67
2023-04-11T17:28:35.658Z,37.63
2023-04-11T17:31:38.723Z,37.20
2023-04-11T17:34:43.178Z,36.93
2023-04-11T17:37:46.470Z,37.14
2023-04-11T17:40:49.540Z,37.13
2023-04-11T17:43:52.534Z,37.36
2023-04-11T17:46:55.850Z,37.58
2023-04-11T17:50:00.416Z,37.38
2023-04-11T17:53:04.835Z,37.38
2023-04-11T17:56:08.656Z,37.41
2023-04-11T17:59:12.529Z,37.62
2023-04-11T18:02:16.625Z,37.70
2023-04-11T18:05:24.908Z,37.99
2023-04-11T18:08:46.786Z,37.91
2023-04-11T18:11:51.348Z,37.67
2023-04-11T18:14:54.334Z,37.83
2023-04-11T18:17:57.460Z,37.73
2023-04-11T18:21:07.287Z,37.43
2023-04-11T18:24:11.183Z,37.37
2023-04-11T18:27:14.287Z,37.27
2023-04-11T18:30:17.812Z,37.96
2023-04-11T18:33:21.066Z,37.80
2023-04-11T18:36:25.851Z,37.49
2023-04-11T18:39:29.415Z,37.60
2023-04-11T18:42:32.495Z,37.69
2023-04-11T18:45:35.737Z,37.77
2023-04-11T18:48:38.805Z,37.71
2023-04-11T18:51:43.384Z,37.31
2023-04-11T18:54:46.430Z,37.58
2023-04-11T18:57:52.868Z,37.60
2023-04-11T19:00:57.203Z,37.48
2023-04-11T19:04:00.562Z,37.33
2023-04-11T19:07:06.097Z,37.43
2023-04-11T19:10:10.103Z,37.37
2023-04-11T19:13:13.247Z,37.43
2023-04-11T19:16:16.598Z,37.54
2023-04-11T19:19:19.718Z,37.17
2023-04-11T19:22:24.221Z,37.20
2023-04-11T19:25:27.494Z,37.41
2023-04-11T19:28:30.761Z,37.20
2023-04-11T19:31:34.091Z,37.43
2023-04-11T19:34:37.179Z,37.33
2023-04-11T19:37:41.854Z,37.33
2023-04-11T19:40:45.026Z,36.91
2023-04-11T19:43:48.744Z,37.01
2023-04-11T19:46:51.840Z,36.84
2023-04-11T19:49:54.990Z,36.85
2023-04-11T19:53:01.483Z,36.80
2023-04-11T19:56:06.215Z,37.00
2023-04-11T19:59:10.659Z,36.81
2023-04-11T20:02:13.933Z,36.97
2023-04-11T20:05:18.814Z,36.93
2023-04-11T20:08:23.289Z,36.69
2023-04-11T20:11:28.998Z,36.57
2023-04-11T20:14:32.495Z,36.67
2023-04-11T20:17:35.702Z,36.55
2023-04-11T20:20:38.921Z,36.40
2023-04-11T20:23:43.449Z,36.59
2023-04-11T20:26:46.487Z,36.67
2023-04-11T20:29:49.935Z,36.26
2023-04-11T20:32:55.179Z,36.33
2023-04-11T20:35:58.355Z,36.32
2023-04-11T20:39:03.175Z,36.59
2023-04-11T20:42:10.781Z,36.27
2023-04-11T20:45:16.312Z,36.16
2023-04-11T20:48:19.950Z,36.31
2023-04-11T20:51:23.062Z,36.33
2023-04-11T20:54:27.671Z,36.22
2023-04-11T20:57:31.214Z,36.33
2023-04-11T21:00:34.290Z,36.28
2023-04-11T21:03:37.785Z,36.31
2023-04-11T21:06:41.356Z,36.20
2023-04-11T21:09:45.907Z,36.16
2023-04-11T21:12:51.560Z,36.16
2023-04-11T21:15:55.090Z,36.01
2023-04-11T21:18:58.371Z,36.39
2023-04-11T21:22:01.481Z,36.20
2023-04-11T21:25:06.735Z,36.39
2023-04-11T21:28:09.731Z,36.17
2023-04-11T21:31:12.800Z,36.13
2023-04-11T21:34:15.888Z,36.05
2023-04-11T21:37:18.993Z,35.93
2023-04-11T21:40:23.721Z,36.07
2023-04-11T21:43:26.822Z,36.00
2023-04-11T21:46:30.189Z,36.02
2023-04-11T21:49:33.489Z,36.15
2023-04-11T21:52:36.583Z,36.06
2023-04-11T21:55:45.541Z,35.98
2023-04-11T21:58:48.579Z,36.04
2023-04-11T22:01:52.521Z,35.89
2023-04-11T22:05:05.779Z,36.06
2023-04-11T22:08:11.698Z,36.00
2023-04-11T22:11:16.839Z,36.18
2023-04-11T22:14:19.981Z,36.10
2023-04-11T22:17:23.804Z,36.00
2023-04-11T22:20:26.863Z,36.00
2023-04-11T22:23:30.102Z,36.04
2023-04-11T22:26:35.144Z,36.01
2023-04-11T22:29:38.245Z,35.80
2023-04-11T22:32:41.419Z,35.91
2023-04-11T22:35:45.179Z,35.71
2023-04-11T22:38:48.256Z,35.91
2023-04-11T22:41:53.557Z,35.87
2023-04-11T22:44:56.749Z,35.72
2023-04-11T22:48:00.255Z,35.91
2023-04-11T22:51:04.263Z,35.94
2023-04-11T22:54:07.557Z,35.95
2023-04-11T22:57:12.043Z,35.62
2023-04-11T23:00:17.158Z,35.93
2023-04-11T23:03:20.770Z,35.85
2023-04-11T23:06:23.957Z,35.78
2023-04-11T23:09:28.296Z,35.78
2023-04-11T23:12:33.028Z,35.88
2023-04-11T23:15:37.398Z,35.97
2023-04-11T23:18:40.522Z,36.13
2023-04-11T23:21:43.706Z,35.70
2023-04-11T23:24:47.099Z,35.64
2023-04-11T23:27:51.616Z,35.89
2023-04-11T23:30:56.241Z,35.57
2023-04-11T23:33:59.873Z,35.80
2023-04-11T23:37:03.424Z,35.98
2023-04-11T23:40:11.137Z,35.76
2023-04-11T23:43:16.144Z,35.69
2023-04-11T23:46:19.361Z,35.93
2023-04-11T23:49:22.459Z,35.80
2023-04-11T23:52:25.746Z,35.90
2023-04-11T23:55:29.889Z,35.96
2023-04-11T23:58:35.378Z,35.99
